sensor_id;sensor_type;location;lat;lon;timestamp;P1;durP1;ratioP1;P2;durP2;ratioP2
19836;SDS011;10079;55.740;37.662;2022-09-03T00:00:02;3.43;;;0.97;;
19836;SDS011;10079;55.740;37.662;2022-09-03T00:02:57;1.47;;;1.10;;
19836;SDS011;10079;55.740;37.662;2022-09-03T00:05:53;1.93;;;0.90;;
19836;SDS011;10079;55.740;37.662;2022-09-03T00:08:57;1.37;;;0.77;;
19836;SDS011;10079;55.740;37.662;2022-09-03T00:11:47;1.17;;;0.90;;
19836;SDS011;10079;55.740;37.662;2022-09-03T00:14:36;1.20;;;0.90;;
19836;SDS011;10079;55.740;37.662;2022-09-03T00:17:33;1.30;;;1.00;;
19836;SDS011;10079;55.740;37.662;2022-09-03T00:20:19;1.27;;;0.87;;
19836;SDS011;10079;55.740;37.662;2022-09-03T00:23:04;1.63;;;0.90;;
19836;SDS011;10079;55.740;37.662;2022-09-03T00:26:14;2.33;;;1.10;;
19836;SDS011;10079;55.740;37.662;2022-09-03T00:29:14;1.10;;;1.00;;
19836;SDS011;10079;55.740;37.662;2022-09-03T00:32:01;2.07;;;1.03;;
19836;SDS011;10079;55.740;37.662;2022-09-03T00:34:45;1.63;;;0.87;;
19836;SDS011;10079;55.740;37.662;2022-09-03T00:37:24;0.87;;;0.83;;
19836;SDS011;10079;55.740;37.662;2022-09-03T00:53:37;1.30;;;0.90;;
19836;SDS011;10079;55.740;37.662;2022-09-03T00:56:25;1.60;;;1.10;;
19836;SDS011;10079;55.740;37.662;2022-09-03T00:59:09;1.30;;;0.70;;
19836;SDS011;10079;55.740;37.662;2022-09-03T01:04:57;1.17;;;0.80;;
19836;SDS011;10079;55.740;37.662;2022-09-03T01:07:48;2.33;;;0.80;;
19836;SDS011;10079;55.740;37.662;2022-09-03T01:10:32;3.17;;;1.07;;
19836;SDS011;10079;55.740;37.662;2022-09-03T01:13:35;4.33;;;1.00;;
19836;SDS011;10079;55.740;37.662;2022-09-03T01:16:19;2.27;;;1.40;;
19836;SDS011;10079;55.740;37.662;2022-09-03T01:19:09;2.20;;;1.20;;
19836;SDS011;10079;55.740;37.662;2022-09-03T01:21:58;1.93;;;1.20;;
19836;SDS011;10079;55.740;37.662;2022-09-03T01:24:50;1.13;;;0.80;;
19836;SDS011;10079;55.740;37.662;2022-09-03T01:27:44;2.80;;;0.90;;
19836;SDS011;10079;55.740;37.662;2022-09-03T01:30:32;1.43;;;0.83;;
19836;SDS011;10079;55.740;37.662;2022-09-03T01:33:19;1.87;;;1.00;;
19836;SDS011;10079;55.740;37.662;2022-09-03T01:39:28;1.63;;;1.20;;
19836;SDS011;10079;55.740;37.662;2022-09-03T01:42:18;2.47;;;1.27;;
19836;SDS011;10079;55.740;37.662;2022-09-03T01:47:58;1.93;;;1.20;;
19836;SDS011;10079;55.740;37.662;2022-09-03T02:01:28;2.13;;;1.07;;
19836;SDS011;10079;55.740;37.662;2022-09-03T02:14:42;2.00;;;1.23;;
19836;SDS011;10079;55.740;37.662;2022-09-03T02:17:23;2.63;;;1.20;;
19836;SDS011;10079;55.740;37.662;2022-09-03T02:20:16;1.90;;;1.33;;
19836;SDS011;10079;55.740;37.662;2022-09-03T02:22:59;1.90;;;1.10;;
19836;SDS011;10079;55.740;37.662;2022-09-03T02:25:55;2.27;;;1.37;;
19836;SDS011;10079;55.740;37.662;2022-09-03T02:28:38;2.40;;;1.10;;
19836;SDS011;10079;55.740;37.662;2022-09-03T02:31:19;2.13;;;1.10;;
19836;SDS011;10079;55.740;37.662;2022-09-03T02:34:12;1.80;;;1.20;;
19836;SDS011;10079;55.740;37.662;2022-09-03T02:37:10;2.27;;;1.10;;
19836;SDS011;10079;55.740;37.662;2022-09-03T02:39:53;2.43;;;1.33;;
19836;SDS011;10079;55.740;37.662;2022-09-03T02:42:34;2.60;;;1.17;;
19836;SDS011;10079;55.740;37.662;2022-09-03T02:45:27;2.73;;;1.20;;
19836;SDS011;10079;55.740;37.662;2022-09-03T02:48:11;2.37;;;1.23;;
19836;SDS011;10079;55.740;37.662;2022-09-03T02:50:51;1.70;;;1.30;;
19836;SDS011;10079;55.740;37.662;2022-09-03T02:53:32;2.33;;;1.20;;
19836;SDS011;10079;55.740;37.662;2022-09-03T02:56:13;1.30;;;1.20;;
19836;SDS011;10079;55.740;37.662;2022-09-03T02:58:57;1.63;;;1.07;;
19836;SDS011;10079;55.740;37.662;2022-09-03T03:01:37;2.80;;;1.30;;
19836;SDS011;10079;55.740;37.662;2022-09-03T03:04:22;2.00;;;1.20;;
19836;SDS011;10079;55.740;37.662;2022-09-03T03:07:02;1.40;;;1.00;;
19836;SDS011;10079;55.740;37.662;2022-09-03T03:09:43;2.30;;;1.43;;
19836;SDS011;10079;55.740;37.662;2022-09-03T03:12:27;2.23;;;1.13;;
19836;SDS011;10079;55.740;37.662;2022-09-03T03:15:11;2.47;;;1.60;;
19836;SDS011;10079;55.740;37.662;2022-09-03T03:28:23;2.17;;;1.40;;
19836;SDS011;10079;55.740;37.662;2022-09-03T03:31:04;2.10;;;1.37;;
19836;SDS011;10079;55.740;37.662;2022-09-03T03:33:50;2.10;;;1.50;;
19836;SDS011;10079;55.740;37.662;2022-09-03T03:36:31;3.17;;;1.47;;
19836;SDS011;10079;55.740;37.662;2022-09-03T03:39:11;2.07;;;1.70;;
19836;SDS011;10079;55.740;37.662;2022-09-03T03:41:56;1.77;;;1.60;;
19836;SDS011;10079;55.740;37.662;2022-09-03T03:44:40;3.57;;;1.57;;
19836;SDS011;10079;55.740;37.662;2022-09-03T03:47:24;4.63;;;1.77;;
19836;SDS011;10079;55.740;37.662;2022-09-03T03:50:05;2.33;;;1.63;;
19836;SDS011;10079;55.740;37.662;2022-09-03T03:52:47;2.37;;;1.67;;
19836;SDS011;10079;55.740;37.662;2022-09-03T03:55:27;3.30;;;1.70;;
19836;SDS011;10079;55.740;37.662;2022-09-03T03:58:12;3.73;;;1.60;;
19836;SDS011;10079;55.740;37.662;2022-09-03T04:01:02;1.70;;;1.40;;
19836;SDS011;10079;55.740;37.662;2022-09-03T04:03:44;2.73;;;1.57;;
19836;SDS011;10079;55.740;37.662;2022-09-03T04:06:28;3.17;;;1.83;;
19836;SDS011;10079;55.740;37.662;2022-09-03T04:09:09;2.77;;;1.80;;
19836;SDS011;10079;55.740;37.662;2022-09-03T04:33:16;2.93;;;1.63;;
19836;SDS011;10079;55.740;37.662;2022-09-03T04:36:04;2.87;;;1.60;;
19836;SDS011;10079;55.740;37.662;2022-09-03T04:38:58;2.53;;;1.60;;
19836;SDS011;10079;55.740;37.662;2022-09-03T04:41:47;2.07;;;1.60;;
19836;SDS011;10079;55.740;37.662;2022-09-03T04:44:40;2.73;;;1.50;;
19836;SDS011;10079;55.740;37.662;2022-09-03T04:47:20;2.87;;;1.67;;
19836;SDS011;10079;55.740;37.662;2022-09-03T04:50:05;2.57;;;1.37;;
19836;SDS011;10079;55.740;37.662;2022-09-03T04:52:59;1.83;;;1.53;;
19836;SDS011;10079;55.740;37.662;2022-09-03T04:55:39;1.60;;;1.40;;
19836;SDS011;10079;55.740;37.662;2022-09-03T04:58:20;2.07;;;1.50;;
19836;SDS011;10079;55.740;37.662;2022-09-03T05:01:07;1.60;;;1.30;;
19836;SDS011;10079;55.740;37.662;2022-09-03T05:03:59;1.53;;;1.33;;
19836;SDS011;10079;55.740;37.662;2022-09-03T05:06:48;2.37;;;1.30;;
19836;SDS011;10079;55.740;37.662;2022-09-03T05:09:29;1.30;;;1.20;;
19836;SDS011;10079;55.740;37.662;2022-09-03T05:12:18;1.40;;;1.30;;
19836;SDS011;10079;55.740;37.662;2022-09-03T05:15:07;2.23;;;1.40;;
19836;SDS011;10079;55.740;37.662;2022-09-03T05:17:55;2.97;;;1.30;;
19836;SDS011;10079;55.740;37.662;2022-09-03T05:20:56;3.73;;;1.60;;
19836;SDS011;10079;55.740;37.662;2022-09-03T05:23:35;1.53;;;1.43;;
19836;SDS011;10079;55.740;37.662;2022-09-03T05:26:30;1.92;;;1.33;;
19836;SDS011;10079;55.740;37.662;2022-09-03T05:29:09;1.75;;;1.50;;
19836;SDS011;10079;55.740;37.662;2022-09-03T05:31:51;1.90;;;1.40;;
19836;SDS011;10079;55.740;37.662;2022-09-03T05:34:31;4.43;;;1.52;;
19836;SDS011;10079;55.740;37.662;2022-09-03T05:37:20;2.08;;;1.55;;
19836;SDS011;10079;55.740;37.662;2022-09-03T05:40:01;2.00;;;1.62;;
19836;SDS011;10079;55.740;37.662;2022-09-03T05:42:47;2.37;;;2.17;;
19836;SDS011;10079;55.740;37.662;2022-09-03T05:45:27;1.60;;;1.40;;
19836;SDS011;10079;55.740;37.662;2022-09-03T05:48:08;1.90;;;1.40;;
19836;SDS011;10079;55.740;37.662;2022-09-03T05:50:49;4.07;;;1.67;;
19836;SDS011;10079;55.740;37.662;2022-09-03T05:53:35;1.98;;;1.60;;
19836;SDS011;10079;55.740;37.662;2022-09-03T05:56:28;2.60;;;1.37;;
19836;SDS011;10079;55.740;37.662;2022-09-03T05:59:08;2.28;;;1.52;;
19836;SDS011;10079;55.740;37.662;2022-09-03T06:01:53;1.83;;;1.52;;
19836;SDS011;10079;55.740;37.662;2022-09-03T06:04:33;2.12;;;1.70;;
19836;SDS011;10079;55.740;37.662;2022-09-03T06:07:14;4.18;;;1.35;;
19836;SDS011;10079;55.740;37.662;2022-09-03T06:09:55;1.73;;;1.42;;
19836;SDS011;10079;55.740;37.662;2022-09-03T06:12:36;2.35;;;1.37;;
19836;SDS011;10079;55.740;37.662;2022-09-03T06:15:17;2.72;;;1.62;;
19836;SDS011;10079;55.740;37.662;2022-09-03T06:17:58;2.87;;;1.30;;
19836;SDS011;10079;55.740;37.662;2022-09-03T06:20:38;1.77;;;1.30;;
19836;SDS011;10079;55.740;37.662;2022-09-03T06:23:20;2.58;;;1.37;;
19836;SDS011;10079;55.740;37.662;2022-09-03T06:26:13;1.33;;;1.23;;
19836;SDS011;10079;55.740;37.662;2022-09-03T06:28:53;2.90;;;1.50;;
19836;SDS011;10079;55.740;37.662;2022-09-03T06:31:34;1.58;;;1.30;;
19836;SDS011;10079;55.740;37.662;2022-09-03T06:34:18;1.60;;;1.50;;
19836;SDS011;10079;55.740;37.662;2022-09-03T06:36:59;3.17;;;1.52;;
19836;SDS011;10079;55.740;37.662;2022-09-03T06:39:39;2.53;;;1.20;;
19836;SDS011;10079;55.740;37.662;2022-09-03T06:42:21;4.12;;;1.50;;
19836;SDS011;10079;55.740;37.662;2022-09-03T06:45:10;3.33;;;1.12;;
19836;SDS011;10079;55.740;37.662;2022-09-03T06:47:50;1.77;;;1.10;;
19836;SDS011;10079;55.740;37.662;2022-09-03T06:50:31;1.33;;;0.90;;
19836;SDS011;10079;55.740;37.662;2022-09-03T06:53:12;2.33;;;1.10;;
19836;SDS011;10079;55.740;37.662;2022-09-03T06:55:55;1.17;;;1.08;;
19836;SDS011;10079;55.740;37.662;2022-09-03T06:58:41;2.78;;;1.17;;
19836;SDS011;10079;55.740;37.662;2022-09-03T07:01:22;2.45;;;1.55;;
19836;SDS011;10079;55.740;37.662;2022-09-03T07:04:14;1.75;;;1.30;;
19836;SDS011;10079;55.740;37.662;2022-09-03T07:06:58;2.03;;;1.85;;
19836;SDS011;10079;55.740;37.662;2022-09-03T07:09:42;2.25;;;1.05;;
19836;SDS011;10079;55.740;37.662;2022-09-03T07:22:57;4.30;;;1.20;;
19836;SDS011;10079;55.740;37.662;2022-09-03T07:25:41;1.48;;;1.00;;
19836;SDS011;10079;55.740;37.662;2022-09-03T07:28:25;1.20;;;1.10;;
19836;SDS011;10079;55.740;37.662;2022-09-03T07:31:21;1.20;;;1.08;;
19836;SDS011;10079;55.740;37.662;2022-09-03T07:34:04;5.10;;;1.10;;
19836;SDS011;10079;55.740;37.662;2022-09-03T07:36:54;2.53;;;1.25;;
19836;SDS011;10079;55.740;37.662;2022-09-03T07:39:38;2.33;;;1.30;;
19836;SDS011;10079;55.740;37.662;2022-09-03T07:42:28;2.15;;;0.98;;
19836;SDS011;10079;55.740;37.662;2022-09-03T07:45:12;2.05;;;1.80;;
19836;SDS011;10079;55.740;37.662;2022-09-03T07:48:01;2.85;;;1.33;;
19836;SDS011;10079;55.740;37.662;2022-09-03T07:50:44;1.50;;;1.27;;
19836;SDS011;10079;55.740;37.662;2022-09-03T07:53:37;6.53;;;1.37;;
19836;SDS011;10079;55.740;37.662;2022-09-03T07:56:18;2.37;;;1.20;;
19836;SDS011;10079;55.740;37.662;2022-09-03T07:59:03;1.73;;;1.30;;
19836;SDS011;10079;55.740;37.662;2022-09-03T08:01:56;3.47;;;1.25;;
19836;SDS011;10079;55.740;37.662;2022-09-03T08:04:45;0.85;;;0.80;;
19836;SDS011;10079;55.740;37.662;2022-09-03T08:18:09;0.98;;;0.88;;
19836;SDS011;10079;55.740;37.662;2022-09-03T08:20:57;1.40;;;0.80;;
19836;SDS011;10079;55.740;37.662;2022-09-03T08:23:36;2.10;;;0.93;;
19836;SDS011;10079;55.740;37.662;2022-09-03T08:26:22;1.30;;;1.10;;
19836;SDS011;10079;55.740;37.662;2022-09-03T08:29:06;1.37;;;1.13;;
19836;SDS011;10079;55.740;37.662;2022-09-03T08:31:50;2.37;;;1.12;;
19836;SDS011;10079;55.740;37.662;2022-09-03T08:34:40;2.65;;;1.20;;
19836;SDS011;10079;55.740;37.662;2022-09-03T08:37:27;1.42;;;1.10;;
19836;SDS011;10079;55.740;37.662;2022-09-03T08:40:17;0.98;;;0.98;;
19836;SDS011;10079;55.740;37.662;2022-09-03T08:43:02;1.23;;;1.00;;
19836;SDS011;10079;55.740;37.662;2022-09-03T08:45:42;2.05;;;1.42;;
19836;SDS011;10079;55.740;37.662;2022-09-03T08:48:28;2.30;;;1.63;;
19836;SDS011;10079;55.740;37.662;2022-09-03T08:51:09;2.05;;;1.30;;
19836;SDS011;10079;55.740;37.662;2022-09-03T08:53:51;1.42;;;0.90;;
19836;SDS011;10079;55.740;37.662;2022-09-03T08:56:36;1.52;;;1.10;;
19836;SDS011;10079;55.740;37.662;2022-09-03T08:59:16;1.87;;;1.00;;
19836;SDS011;10079;55.740;37.662;2022-09-03T09:02:10;2.25;;;1.30;;
19836;SDS011;10079;55.740;37.662;2022-09-03T09:04:57;1.67;;;1.10;;
19836;SDS011;10079;55.740;37.662;2022-09-03T09:07:44;3.10;;;1.35;;
19836;SDS011;10079;55.740;37.662;2022-09-03T09:10:36;1.10;;;0.90;;
19836;SDS011;10079;55.740;37.662;2022-09-03T09:16:12;0.70;;;0.70;;
19836;SDS011;10079;55.740;37.662;2022-09-03T09:19:00;1.30;;;1.10;;
19836;SDS011;10079;55.740;37.662;2022-09-03T09:21:40;1.27;;;1.00;;
19836;SDS011;10079;55.740;37.662;2022-09-03T09:24:22;1.70;;;1.10;;
19836;SDS011;10079;55.740;37.662;2022-09-03T09:27:12;1.20;;;0.97;;
19836;SDS011;10079;55.740;37.662;2022-09-03T09:29:51;2.47;;;1.20;;
19836;SDS011;10079;55.740;37.662;2022-09-03T09:32:41;1.77;;;1.23;;
19836;SDS011;10079;55.740;37.662;2022-09-03T09:35:26;2.30;;;1.23;;
19836;SDS011;10079;55.740;37.662;2022-09-03T09:38:08;1.00;;;0.90;;
19836;SDS011;10079;55.740;37.662;2022-09-03T09:40:53;2.83;;;1.27;;
19836;SDS011;10079;55.740;37.662;2022-09-03T09:43:34;0.97;;;0.80;;
19836;SDS011;10079;55.740;37.662;2022-09-03T09:46:20;1.03;;;0.90;;
19836;SDS011;10079;55.740;37.662;2022-09-03T09:49:00;1.77;;;1.20;;
19836;SDS011;10079;55.740;37.662;2022-09-03T09:51:59;1.60;;;0.80;;
19836;SDS011;10079;55.740;37.662;2022-09-03T09:54:32;1.77;;;0.90;;
19836;SDS011;10079;55.740;37.662;2022-09-03T09:57:25;1.37;;;0.90;;
19836;SDS011;10079;55.740;37.662;2022-09-03T10:00:24;0.83;;;0.83;;
19836;SDS011;10079;55.740;37.662;2022-09-03T10:03:13;2.63;;;1.20;;
19836;SDS011;10079;55.740;37.662;2022-09-03T10:06:07;3.20;;;1.03;;
19836;SDS011;10079;55.740;37.662;2022-09-03T10:08:47;0.80;;;0.80;;
19836;SDS011;10079;55.740;37.662;2022-09-03T10:11:42;1.27;;;0.90;;
19836;SDS011;10079;55.740;37.662;2022-09-03T10:14:25;1.10;;;0.90;;
19836;SDS011;10079;55.740;37.662;2022-09-03T10:17:13;1.17;;;1.00;;
19836;SDS011;10079;55.740;37.662;2022-09-03T10:23:21;1.30;;;1.20;;
19836;SDS011;10079;55.740;37.662;2022-09-03T10:26:04;1.67;;;1.30;;
19836;SDS011;10079;55.740;37.662;2022-09-03T10:28:56;1.23;;;0.80;;
19836;SDS011;10079;55.740;37.662;2022-09-03T10:34:51;1.80;;;0.60;;
19836;SDS011;10079;55.740;37.662;2022-09-03T10:37:36;2.20;;;0.60;;
19836;SDS011;10079;55.740;37.662;2022-09-03T10:40:24;1.23;;;0.90;;
19836;SDS011;10079;55.740;37.662;2022-09-03T10:46:14;2.00;;;0.70;;
19836;SDS011;10079;55.740;37.662;2022-09-03T10:49:08;1.33;;;0.77;;
19836;SDS011;10079;55.740;37.662;2022-09-03T10:51:58;0.50;;;0.50;;
19836;SDS011;10079;55.740;37.662;2022-09-03T10:54:44;2.00;;;0.90;;
19836;SDS011;10079;55.740;37.662;2022-09-03T11:02:56;1.50;;;0.80;;
19836;SDS011;10079;55.740;37.662;2022-09-03T11:05:59;0.70;;;0.70;;
19836;SDS011;10079;55.740;37.662;2022-09-03T11:09:00;1.23;;;0.53;;
19836;SDS011;10079;55.740;37.662;2022-09-03T11:11:54;4.13;;;0.80;;
19836;SDS011;10079;55.740;37.662;2022-09-03T11:17:37;1.20;;;1.03;;
19836;SDS011;10079;55.740;37.662;2022-09-03T11:20:24;0.93;;;0.70;;
19836;SDS011;10079;55.740;37.662;2022-09-03T11:23:08;4.23;;;1.00;;
19836;SDS011;10079;55.740;37.662;2022-09-03T11:25:53;1.23;;;0.87;;
19836;SDS011;10079;55.740;37.662;2022-09-03T11:31:38;1.97;;;1.30;;
19836;SDS011;10079;55.740;37.662;2022-09-03T11:34:29;2.73;;;1.40;;
19836;SDS011;10079;55.740;37.662;2022-09-03T11:37:17;2.53;;;1.20;;
19836;SDS011;10079;55.740;37.662;2022-09-03T11:40:13;3.83;;;1.50;;
19836;SDS011;10079;55.740;37.662;2022-09-03T11:43:04;4.33;;;1.70;;
19836;SDS011;10079;55.740;37.662;2022-09-03T11:45:47;1.60;;;0.93;;
19836;SDS011;10079;55.740;37.662;2022-09-03T11:51:18;1.57;;;1.20;;
19836;SDS011;10079;55.740;37.662;2022-09-03T11:57:12;1.83;;;1.37;;
19836;SDS011;10079;55.740;37.662;2022-09-03T12:00:07;1.57;;;1.07;;
19836;SDS011;10079;55.740;37.662;2022-09-03T12:02:49;1.47;;;0.80;;
19836;SDS011;10079;55.740;37.662;2022-09-03T12:05:47;0.80;;;0.60;;
19836;SDS011;10079;55.740;37.662;2022-09-03T12:08:38;0.83;;;0.63;;
19836;SDS011;10079;55.740;37.662;2022-09-03T12:11:23;2.93;;;0.70;;
19836;SDS011;10079;55.740;37.662;2022-09-03T12:14:21;1.30;;;1.00;;
19836;SDS011;10079;55.740;37.662;2022-09-03T12:17:06;1.70;;;1.00;;
19836;SDS011;10079;55.740;37.662;2022-09-03T12:19:50;0.80;;;0.70;;
19836;SDS011;10079;55.740;37.662;2022-09-03T12:22:45;2.50;;;1.33;;
19836;SDS011;10079;55.740;37.662;2022-09-03T12:25:34;1.27;;;0.90;;
19836;SDS011;10079;55.740;37.662;2022-09-03T12:39:13;3.83;;;1.20;;
19836;SDS011;10079;55.740;37.662;2022-09-03T12:52:38;2.03;;;1.00;;
19836;SDS011;10079;55.740;37.662;2022-09-03T13:08:54;5.83;;;2.20;;
19836;SDS011;10079;55.740;37.662;2022-09-03T13:11:38;1.30;;;1.20;;
19836;SDS011;10079;55.740;37.662;2022-09-03T13:14:22;1.40;;;1.00;;
19836;SDS011;10079;55.740;37.662;2022-09-03T13:17:07;1.67;;;0.90;;
19836;SDS011;10079;55.740;37.662;2022-09-03T13:20:10;1.50;;;0.93;;
19836;SDS011;10079;55.740;37.662;2022-09-03T13:22:59;3.97;;;1.37;;
19836;SDS011;10079;55.740;37.662;2022-09-03T13:36:29;3.00;;;1.73;;
19836;SDS011;10079;55.740;37.662;2022-09-03T13:39:16;3.30;;;1.30;;
19836;SDS011;10079;55.740;37.662;2022-09-03T13:41:54;2.83;;;0.97;;
19836;SDS011;10079;55.740;37.662;2022-09-03T13:44:43;3.10;;;1.77;;
19836;SDS011;10079;55.740;37.662;2022-09-03T13:47:39;1.63;;;1.10;;
19836;SDS011;10079;55.740;37.662;2022-09-03T13:50:23;1.70;;;1.10;;
19836;SDS011;10079;55.740;37.662;2022-09-03T13:53:06;2.63;;;1.10;;
19836;SDS011;10079;55.740;37.662;2022-09-03T13:55:47;1.57;;;0.90;;
19836;SDS011;10079;55.740;37.662;2022-09-03T13:58:29;1.60;;;0.90;;
19836;SDS011;10079;55.740;37.662;2022-09-03T14:01:22;1.50;;;0.63;;
19836;SDS011;10079;55.740;37.662;2022-09-03T14:10:43;2.27;;;0.90;;
19836;SDS011;10079;55.740;37.662;2022-09-03T14:13:38;1.67;;;1.00;;
19836;SDS011;10079;55.740;37.662;2022-09-03T14:16:35;3.20;;;1.30;;
19836;SDS011;10079;55.740;37.662;2022-09-03T14:19:22;1.90;;;1.40;;
19836;SDS011;10079;55.740;37.662;2022-09-03T14:22:12;1.80;;;1.17;;
19836;SDS011;10079;55.740;37.662;2022-09-03T14:24:56;1.20;;;1.07;;
19836;SDS011;10079;55.740;37.662;2022-09-03T14:27:39;3.67;;;1.00;;
19836;SDS011;10079;55.740;37.662;2022-09-03T14:30:36;0.80;;;0.80;;
19836;SDS011;10079;55.740;37.662;2022-09-03T14:33:19;2.60;;;1.10;;
19836;SDS011;10079;55.740;37.662;2022-09-03T14:36:02;1.93;;;0.90;;
19836;SDS011;10079;55.740;37.662;2022-09-03T14:38:45;1.23;;;0.80;;
19836;SDS011;10079;55.740;37.662;2022-09-03T14:41:31;2.37;;;1.10;;
19836;SDS011;10079;55.740;37.662;2022-09-03T14:44:19;1.80;;;1.40;;
19836;SDS011;10079;55.740;37.662;2022-09-03T14:47:07;1.70;;;1.20;;
19836;SDS011;10079;55.740;37.662;2022-09-03T15:03:18;1.40;;;0.90;;
19836;SDS011;10079;55.740;37.662;2022-09-03T15:06:17;1.27;;;1.10;;
19836;SDS011;10079;55.740;37.662;2022-09-03T15:09:24;1.60;;;1.13;;
19836;SDS011;10079;55.740;37.662;2022-09-03T15:12:17;3.07;;;1.70;;
19836;SDS011;10079;55.740;37.662;2022-09-03T15:15:07;2.07;;;1.40;;
19836;SDS011;10079;55.740;37.662;2022-09-03T15:17:59;2.67;;;1.00;;
19836;SDS011;10079;55.740;37.662;2022-09-03T15:34:52;2.83;;;1.30;;
19836;SDS011;10079;55.740;37.662;2022-09-03T15:37:46;3.40;;;1.20;;
19836;SDS011;10079;55.740;37.662;2022-09-03T15:43:46;2.10;;;1.60;;
19836;SDS011;10079;55.740;37.662;2022-09-03T15:49:51;2.97;;;1.50;;
19836;SDS011;10079;55.740;37.662;2022-09-03T15:52:51;3.00;;;1.20;;
19836;SDS011;10079;55.740;37.662;2022-09-03T15:55:42;2.33;;;1.40;;
19836;SDS011;10079;55.740;37.662;2022-09-03T16:09:14;2.50;;;1.80;;
19836;SDS011;10079;55.740;37.662;2022-09-03T16:11:55;5.73;;;2.50;;
19836;SDS011;10079;55.740;37.662;2022-09-03T16:25:17;4.13;;;2.20;;
19836;SDS011;10079;55.740;37.662;2022-09-03T16:28:15;3.73;;;1.60;;
19836;SDS011;10079;55.740;37.662;2022-09-03T16:31:06;4.53;;;1.90;;
19836;SDS011;10079;55.740;37.662;2022-09-03T16:33:46;2.37;;;1.30;;
19836;SDS011;10079;55.740;37.662;2022-09-03T16:36:34;1.73;;;1.30;;
19836;SDS011;10079;55.740;37.662;2022-09-03T16:39:28;2.80;;;1.33;;
19836;SDS011;10079;55.740;37.662;2022-09-03T16:45:16;3.17;;;1.43;;
19836;SDS011;10079;55.740;37.662;2022-09-03T16:51:05;4.83;;;2.33;;
19836;SDS011;10079;55.740;37.662;2022-09-03T16:54:05;5.00;;;2.40;;
19836;SDS011;10079;55.740;37.662;2022-09-03T17:02:43;3.80;;;2.47;;
19836;SDS011;10079;55.740;37.662;2022-09-03T17:05:48;3.40;;;1.90;;
19836;SDS011;10079;55.740;37.662;2022-09-03T17:08:39;3.90;;;1.90;;
19836;SDS011;10079;55.740;37.662;2022-09-03T17:11:38;2.23;;;1.40;;
19836;SDS011;10079;55.740;37.662;2022-09-03T17:20:33;2.63;;;1.60;;
19836;SDS011;10079;55.740;37.662;2022-09-03T17:23:14;2.93;;;2.00;;
19836;SDS011;10079;55.740;37.662;2022-09-03T17:25:53;3.53;;;1.70;;
19836;SDS011;10079;55.740;37.662;2022-09-03T17:34:50;2.27;;;1.63;;
19836;SDS011;10079;55.740;37.662;2022-09-03T17:40:53;2.77;;;1.27;;
19836;SDS011;10079;55.740;37.662;2022-09-03T17:43:37;2.37;;;1.30;;
19836;SDS011;10079;55.740;37.662;2022-09-03T17:46:20;2.23;;;1.43;;
19836;SDS011;10079;55.740;37.662;2022-09-03T17:49:01;3.73;;;1.80;;
19836;SDS011;10079;55.740;37.662;2022-09-03T17:51:44;6.43;;;2.10;;
19836;SDS011;10079;55.740;37.662;2022-09-03T17:54:39;3.50;;;1.90;;
19836;SDS011;10079;55.740;37.662;2022-09-03T17:57:22;3.27;;;1.63;;
19836;SDS011;10079;55.740;37.662;2022-09-03T18:00:21;3.20;;;2.00;;
19836;SDS011;10079;55.740;37.662;2022-09-03T18:13:41;3.17;;;1.80;;
19836;SDS011;10079;55.740;37.662;2022-09-03T18:27:31;5.20;;;2.40;;
19836;SDS011;10079;55.740;37.662;2022-09-03T18:41:14;3.33;;;2.00;;
19836;SDS011;10079;55.740;37.662;2022-09-03T18:44:00;4.23;;;1.90;;
19836;SDS011;10079;55.740;37.662;2022-09-03T18:46:46;3.00;;;1.93;;
19836;SDS011;10079;55.740;37.662;2022-09-03T19:00:22;3.43;;;1.63;;
19836;SDS011;10079;55.740;37.662;2022-09-03T19:03:15;3.00;;;1.70;;
19836;SDS011;10079;55.740;37.662;2022-09-03T19:06:04;4.00;;;1.80;;
19836;SDS011;10079;55.740;37.662;2022-09-03T19:14:55;3.90;;;2.00;;
19836;SDS011;10079;55.740;37.662;2022-09-03T19:20:49;5.50;;;1.80;;
19836;SDS011;10079;55.740;37.662;2022-09-03T19:23:26;3.07;;;1.80;;
19836;SDS011;10079;55.740;37.662;2022-09-03T19:26:25;3.87;;;1.80;;
19836;SDS011;10079;55.740;37.662;2022-09-03T19:29:12;2.97;;;1.70;;
19836;SDS011;10079;55.740;37.662;2022-09-03T19:31:59;2.67;;;1.77;;
19836;SDS011;10079;55.740;37.662;2022-09-03T19:34:49;4.57;;;2.00;;
19836;SDS011;10079;55.740;37.662;2022-09-03T19:37:34;3.97;;;1.83;;
19836;SDS011;10079;55.740;37.662;2022-09-03T19:40:46;2.47;;;1.73;;
19836;SDS011;10079;55.740;37.662;2022-09-03T19:43:51;2.00;;;1.47;;
19836;SDS011;10079;55.740;37.662;2022-09-03T19:46:39;2.50;;;1.43;;
19836;SDS011;10079;55.740;37.662;2022-09-03T19:55:09;2.30;;;1.80;;
19836;SDS011;10079;55.740;37.662;2022-09-03T19:57:59;2.37;;;1.63;;
19836;SDS011;10079;55.740;37.662;2022-09-03T20:00:41;2.40;;;1.60;;
19836;SDS011;10079;55.740;37.662;2022-09-03T20:03:25;3.17;;;2.20;;
19836;SDS011;10079;55.740;37.662;2022-09-03T20:06:06;6.13;;;1.90;;
19836;SDS011;10079;55.740;37.662;2022-09-03T20:08:50;2.87;;;1.93;;
19836;SDS011;10079;55.740;37.662;2022-09-03T20:11:31;4.50;;;2.07;;
19836;SDS011;10079;55.740;37.662;2022-09-03T20:14:13;4.63;;;2.10;;
19836;SDS011;10079;55.740;37.662;2022-09-03T20:17:00;2.40;;;1.63;;
19836;SDS011;10079;55.740;37.662;2022-09-03T20:20:05;3.67;;;2.00;;
19836;SDS011;10079;55.740;37.662;2022-09-03T20:22:56;3.27;;;1.70;;
19836;SDS011;10079;55.740;37.662;2022-09-03T20:26:00;2.20;;;1.20;;
19836;SDS011;10079;55.740;37.662;2022-09-03T20:31:43;1.37;;;0.93;;
19836;SDS011;10079;55.740;37.662;2022-09-03T20:34:28;2.27;;;0.90;;
19836;SDS011;10079;55.740;37.662;2022-09-03T20:37:22;1.30;;;0.93;;
19836;SDS011;10079;55.740;37.662;2022-09-03T20:40:21;1.07;;;0.80;;
19836;SDS011;10079;55.740;37.662;2022-09-03T20:53:59;2.60;;;1.50;;
19836;SDS011;10079;55.740;37.662;2022-09-03T20:56:55;1.57;;;1.27;;
19836;SDS011;10079;55.740;37.662;2022-09-03T20:59:55;3.40;;;1.00;;
19836;SDS011;10079;55.740;37.662;2022-09-03T21:08:49;1.13;;;1.00;;
19836;SDS011;10079;55.740;37.662;2022-09-03T21:11:44;1.83;;;1.17;;
19836;SDS011;10079;55.740;37.662;2022-09-03T21:14:41;1.60;;;0.90;;
19836;SDS011;10079;55.740;37.662;2022-09-03T21:17:28;1.63;;;1.10;;
19836;SDS011;10079;55.740;37.662;2022-09-03T21:20:32;2.60;;;1.17;;
19836;SDS011;10079;55.740;37.662;2022-09-03T21:23:32;1.47;;;1.30;;
19836;SDS011;10079;55.740;37.662;2022-09-03T21:26:26;2.20;;;1.20;;
19836;SDS011;10079;55.740;37.662;2022-09-03T21:29:19;2.03;;;1.40;;
19836;SDS011;10079;55.740;37.662;2022-09-03T21:32:01;1.70;;;1.20;;
19836;SDS011;10079;55.740;37.662;2022-09-03T21:34:54;2.77;;;1.40;;
19836;SDS011;10079;55.740;37.662;2022-09-03T21:37:40;1.83;;;1.13;;
19836;SDS011;10079;55.740;37.662;2022-09-03T21:40:25;1.50;;;1.23;;
19836;SDS011;10079;55.740;37.662;2022-09-03T21:43:09;3.13;;;1.10;;
19836;SDS011;10079;55.740;37.662;2022-09-03T21:46:00;2.83;;;1.27;;
19836;SDS011;10079;55.740;37.662;2022-09-03T21:48:48;1.50;;;1.30;;
19836;SDS011;10079;55.740;37.662;2022-09-03T21:51:32;1.63;;;1.13;;
19836;SDS011;10079;55.740;37.662;2022-09-03T21:54:16;1.27;;;1.10;;
19836;SDS011;10079;55.740;37.662;2022-09-03T21:57:00;2.70;;;1.10;;
19836;SDS011;10079;55.740;37.662;2022-09-03T22:02:37;1.87;;;1.20;;
19836;SDS011;10079;55.740;37.662;2022-09-03T22:05:21;3.53;;;1.50;;
19836;SDS011;10079;55.740;37.662;2022-09-03T22:08:06;3.87;;;1.50;;
19836;SDS011;10079;55.740;37.662;2022-09-03T22:10:55;2.70;;;1.53;;
19836;SDS011;10079;55.740;37.662;2022-09-03T22:13:42;2.27;;;1.60;;